Time;durP1;ratioP1;P1;durP2;ratioP2;P2;SDS_P1;SDS_P2;PMS_P1;PMS_P2;Temp;Humidity;BMP_temperature;BMP_pressure;BME280_temperature;BME280_humidity;BME280_pressure;Samples;Min_cycle;Max_cycle;Signal;HPM_P1;HPM_P2
2021/08/29 00:01:10;;;;;;;96.00;89.60;;;;;;;;;;5033578;28;20444;-67
2021/08/29 00:03:37;;;;;;;96.17;90.07;;;;;;;;;;5034075;28;20444;-67
2021/08/29 00:06:04;;;;;;;94.97;88.67;;;;;;;;;;5033948;28;20465;-67
2021/08/29 00:08:31;;;;;;;98.13;92.03;;;;;;;;;;5034142;28;20792;-69
2021/08/29 00:10:58;;;;;;;92.27;86.07;;;;;;;;;;5033895;28;20448;-67
2021/08/29 00:13:27;;;;;;;97.77;91.50;;;;;;;;;;5033984;28;20444;-68
2021/08/29 00:15:54;;;;;;;93.90;87.70;;;;;;;;;;5035117;28;20833;-68
2021/08/29 00:18:21;;;;;;;98.13;91.93;;;;;;;;;;5033830;28;20452;-67
2021/08/29 00:20:48;;;;;;;92.17;86.07;;;;;;;;;;5033340;28;20445;-67
2021/08/29 00:23:15;;;;;;;93.80;87.73;;;;;;;;;;5033617;28;20967;-68
2021/08/29 00:25:43;;;;;;;89.70;83.80;;;;;;;;;;5033296;28;20477;-68
2021/08/29 00:28:10;;;;;;;91.27;85.23;;;;;;;;;;5033440;28;20958;-68
2021/08/29 00:30:38;;;;;;;90.67;84.47;;;;;;;;;;5033514;28;20455;-67
2021/08/29 00:33:05;;;;;;;92.70;86.50;;;;;;;;;;5033413;28;20445;-67
2021/08/29 00:35:33;;;;;;;87.60;81.70;;;;;;;;;;5033144;28;20984;-67
2021/08/29 00:38:00;;;;;;;90.13;84.13;;;;;;;;;;5032790;28;20830;-68
2021/08/29 00:40:27;;;;;;;99.53;93.30;;;;;;;;;;5033324;28;20524;-67
2021/08/29 00:42:55;;;;;;;95.13;88.90;;;;;;;;;;5033469;28;20606;-68
2021/08/29 00:45:22;;;;;;;90.70;84.50;;;;;;;;;;5033097;28;20464;-68
2021/08/29 00:47:51;;;;;;;90.97;84.77;;;;;;;;;;5033184;28;20452;-68
2021/08/29 00:50:18;;;;;;;88.80;82.60;;;;;;;;;;5032810;28;20452;-67
2021/08/29 00:52:45;;;;;;;98.47;92.00;;;;;;;;;;5032866;28;20452;-68
2021/08/29 00:55:13;;;;;;;88.23;82.20;;;;;;;;;;5032393;28;20464;-68
2021/08/29 00:57:40;;;;;;;93.60;87.30;;;;;;;;;;5032778;28;20490;-67
2021/08/29 01:00:08;;;;;;;94.63;88.53;;;;;;;;;;5032863;28;20440;-67
2021/08/29 01:02:36;;;;;;;89.70;83.80;;;;;;;;;;5032631;28;20448;-67
2021/08/29 01:05:07;;;;;;;90.03;84.07;;;;;;;;;;5032532;28;20479;-68
2021/08/29 01:07:36;;;;;;;96.30;90.10;;;;;;;;;;5033056;28;20535;-67
2021/08/29 01:10:05;;;;;;;90.00;84.07;;;;;;;;;;5032889;28;20464;-67
2021/08/29 01:12:34;;;;;;;92.50;86.50;;;;;;;;;;5032482;28;20448;-69
2021/08/29 01:15:02;;;;;;;92.70;86.47;;;;;;;;;;5032413;28;20472;-68
2021/08/29 01:17:30;;;;;;;90.70;84.60;;;;;;;;;;5032298;28;20477;-67
2021/08/29 01:20:01;;;;;;;91.47;85.47;;;;;;;;;;5032606;28;20950;-67
2021/08/29 01:22:30;;;;;;;90.83;84.93;;;;;;;;;;5032512;28;20459;-67
2021/08/29 01:24:57;;;;;;;92.50;86.30;;;;;;;;;;5032088;28;20487;-69
2021/08/29 01:27:27;;;;;;;92.10;86.10;;;;;;;;;;5032573;28;20441;-67
2021/08/29 01:29:56;;;;;;;92.33;86.10;;;;;;;;;;5032295;28;20939;-67
2021/08/29 01:32:23;;;;;;;90.23;83.93;;;;;;;;;;5032513;28;20510;-69
2021/08/29 01:34:51;;;;;;;88.20;82.20;;;;;;;;;;5032244;28;20469;-67
2021/08/29 01:37:18;;;;;;;90.30;84.20;;;;;;;;;;5032308;28;20485;-68
2021/08/29 01:39:46;;;;;;;95.40;89.07;;;;;;;;;;5032383;28;20955;-68
2021/08/29 01:42:13;;;;;;;93.70;87.63;;;;;;;;;;5032268;28;20448;-67
2021/08/29 01:44:41;;;;;;;90.53;84.33;;;;;;;;;;5031787;28;20559;-67
2021/08/29 01:47:09;;;;;;;97.63;91.23;;;;;;;;;;5032060;28;20936;-68
2021/08/29 01:49:37;;;;;;;103.60;96.93;;;;;;;;;;5032324;28;20519;-67
2021/08/29 01:52:04;;;;;;;90.13;84.13;;;;;;;;;;5031760;28;20822;-68
2021/08/29 01:54:31;;;;;;;86.27;80.30;;;;;;;;;;5031761;28;20472;-67
2021/08/29 01:57:00;;;;;;;89.00;82.83;;;;;;;;;;5031878;28;20480;-67
2021/08/29 01:59:27;;;;;;;90.73;84.67;;;;;;;;;;5031911;28;20959;-67
2021/08/29 02:01:54;;;;;;;94.07;87.83;;;;;;;;;;5031539;28;20932;-67
2021/08/29 02:04:23;;;;;;;89.17;83.27;;;;;;;;;;5031930;28;20468;-67
2021/08/29 02:06:54;;;;;;;90.93;84.83;;;;;;;;;;5031485;28;20935;-68
2021/08/29 02:09:21;;;;;;;100.33;94.03;;;;;;;;;;5031916;28;20449;-67
2021/08/29 02:11:51;;;;;;;93.57;87.27;;;;;;;;;;5031332;28;20468;-67
2021/08/29 02:14:21;;;;;;;95.63;89.27;;;;;;;;;;5031850;28;20468;-68
2021/08/29 02:16:49;;;;;;;93.00;86.60;;;;;;;;;;5032081;28;20488;-67
2021/08/29 02:19:20;;;;;;;90.00;83.60;;;;;;;;;;5031979;28;20441;-68
2021/08/29 02:21:48;;;;;;;95.77;89.47;;;;;;;;;;5031535;28;20456;-67
2021/08/29 02:24:15;;;;;;;96.90;90.50;;;;;;;;;;5031429;28;21007;-67
2021/08/29 02:26:43;;;;;;;92.40;86.00;;;;;;;;;;5032027;28;20448;-68
2021/08/29 02:29:11;;;;;;;89.40;83.10;;;;;;;;;;5031776;28;20491;-68
2021/08/29 02:31:38;;;;;;;94.83;88.43;;;;;;;;;;5031630;28;20449;-67
2021/08/29 02:34:05;;;;;;;93.40;87.03;;;;;;;;;;5031909;28;20453;-68
2021/08/29 02:36:33;;;;;;;91.50;85.10;;;;;;;;;;5031287;28;20444;-68
2021/08/29 02:39:02;;;;;;;91.30;85.03;;;;;;;;;;5031543;28;20452;-67
2021/08/29 02:41:30;;;;;;;91.67;85.27;;;;;;;;;;5031546;28;20494;-67
2021/08/29 02:43:58;;;;;;;96.03;89.57;;;;;;;;;;5031511;28;20829;-67
2021/08/29 02:46:26;;;;;;;86.80;80.33;;;;;;;;;;5032011;28;20451;-67
2021/08/29 02:48:54;;;;;;;91.60;85.30;;;;;;;;;;5031769;28;20441;-68
2021/08/29 02:51:23;;;;;;;92.77;86.23;;;;;;;;;;5031292;28;20444;-67
2021/08/29 02:53:50;;;;;;;91.63;85.13;;;;;;;;;;5031466;28;20940;-67
2021/08/29 02:56:20;;;;;;;87.17;81.07;;;;;;;;;;5031547;28;20817;-68
2021/08/29 02:58:47;;;;;;;88.53;82.30;;;;;;;;;;5030853;28;21041;-68
2021/08/29 03:01:14;;;;;;;88.00;81.80;;;;;;;;;;5031254;28;20449;-67
2021/08/29 03:03:41;;;;;;;93.13;86.83;;;;;;;;;;5031287;28;20962;-67
2021/08/29 03:06:09;;;;;;;87.30;81.40;;;;;;;;;;5031643;28;20471;-67
2021/08/29 03:08:36;;;;;;;93.57;87.23;;;;;;;;;;5031349;28;20455;-67
2021/08/29 03:11:03;;;;;;;91.77;85.13;;;;;;;;;;5031257;28;20448;-68
2021/08/29 03:13:32;;;;;;;93.67;87.07;;;;;;;;;;5030955;28;20452;-68
2021/08/29 03:15:59;;;;;;;95.17;88.67;;;;;;;;;;5031272;28;20888;-69
2021/08/29 03:18:27;;;;;;;93.50;87.17;;;;;;;;;;5030936;28;20484;-67
2021/08/29 03:20:54;;;;;;;94.10;87.60;;;;;;;;;;5034656;28;20458;-67
2021/08/29 03:23:21;;;;;;;89.57;83.20;;;;;;;;;;5034918;28;20456;-69
2021/08/29 03:25:49;;;;;;;87.30;81.00;;;;;;;;;;5034574;28;20488;-68
2021/08/29 03:28:16;;;;;;;89.57;83.17;;;;;;;;;;5034444;28;20440;-68
2021/08/29 03:30:44;;;;;;;90.50;84.30;;;;;;;;;;5034411;28;20932;-67
2021/08/29 03:33:12;;;;;;;88.90;82.60;;;;;;;;;;5034807;28;20459;-68
2021/08/29 03:35:39;;;;;;;89.97;83.87;;;;;;;;;;5034773;28;20464;-68
2021/08/29 03:38:07;;;;;;;90.67;84.27;;;;;;;;;;5034170;28;20487;-68
2021/08/29 03:40:34;;;;;;;92.80;86.30;;;;;;;;;;5034322;28;20444;-68
2021/08/29 03:43:01;;;;;;;91.47;85.00;;;;;;;;;;5034382;28;20451;-67
2021/08/29 03:45:29;;;;;;;89.60;83.40;;;;;;;;;;5034261;28;20464;-68
2021/08/29 03:47:57;;;;;;;93.90;87.60;;;;;;;;;;5034302;28;20444;-68
2021/08/29 03:50:25;;;;;;;95.47;88.80;;;;;;;;;;5034328;28;20452;-68
2021/08/29 03:52:52;;;;;;;92.00;85.40;;;;;;;;;;5034089;28;20471;-69
2021/08/29 03:55:19;;;;;;;97.40;91.00;;;;;;;;;;5034226;28;20471;-67
2021/08/29 03:57:46;;;;;;;91.17;84.97;;;;;;;;;;5033946;28;21023;-68
2021/08/29 04:00:14;;;;;;;87.57;81.47;;;;;;;;;;5033999;28;20449;-67
2021/08/29 04:02:41;;;;;;;90.77;84.47;;;;;;;;;;5034059;28;20445;-67
2021/08/29 04:05:11;;;;;;;86.63;80.20;;;;;;;;;;5034094;28;20484;-68
2021/08/29 04:07:38;;;;;;;87.97;81.57;;;;;;;;;;5033679;28;20813;-67
2021/08/29 04:10:06;;;;;;;89.33;83.13;;;;;;;;;;5034016;28;20819;-68
2021/08/29 04:12:34;;;;;;;87.87;81.47;;;;;;;;;;5033672;28;20452;-72
2021/08/29 04:15:02;;;;;;;87.93;81.60;;;;;;;;;;5034340;28;20464;-72
2021/08/29 04:17:32;;;;;;;88.37;82.07;;;;;;;;;;5034331;28;20480;-74
2021/08/29 04:20:00;;;;;;;86.80;80.50;;;;;;;;;;5034246;28;20452;-68
2021/08/29 04:22:30;;;;;;;92.93;86.47;;;;;;;;;;5033730;28;20549;-72
2021/08/29 04:24:57;;;;;;;89.10;82.50;;;;;;;;;;5033489;28;20841;-69
2021/08/29 04:27:24;;;;;;;87.33;81.07;;;;;;;;;;5033884;28;20453;-71
2021/08/29 04:29:52;;;;;;;96.20;89.67;;;;;;;;;;5033912;28;20940;-71
2021/08/29 04:32:20;;;;;;;92.53;86.03;;;;;;;;;;5033737;28;20455;-73
2021/08/29 04:34:47;;;;;;;92.97;85.80;;;;;;;;;;5034056;28;20866;-73
2021/08/29 04:37:14;;;;;;;88.07;81.47;;;;;;;;;;5033671;28;20444;-71
2021/08/29 04:39:43;;;;;;;98.33;91.33;;;;;;;;;;5033178;28;20456;-69
2021/08/29 04:42:10;;;;;;;96.67;90.10;;;;;;;;;;5033670;28;20453;-75
2021/08/29 04:44:37;;;;;;;87.13;80.60;;;;;;;;;;5033591;28;20979;-73
2021/08/29 04:47:04;;;;;;;92.97;86.43;;;;;;;;;;5033689;28;20445;-69
2021/08/29 04:49:31;;;;;;;88.60;82.20;;;;;;;;;;5033652;28;20449;-72
2021/08/29 04:51:58;;;;;;;85.83;79.53;;;;;;;;;;5033204;28;20932;-68
2021/08/29 04:54:25;;;;;;;82.70;76.60;;;;;;;;;;5033349;28;20469;-74
2021/08/29 04:56:54;;;;;;;87.27;80.97;;;;;;;;;;5033616;28;20456;-71
2021/08/29 04:59:21;;;;;;;87.63;81.07;;;;;;;;;;5033788;28;20488;-77
2021/08/29 05:01:48;;;;;;;88.90;82.43;;;;;;;;;;5033192;28;20445;-76
2021/08/29 05:04:15;;;;;;;85.73;79.33;;;;;;;;;;5033026;28;20468;-77
2021/08/29 05:06:42;;;;;;;88.87;82.37;;;;;;;;;;5033250;28;20455;-69
2021/08/29 05:09:09;;;;;;;86.97;80.67;;;;;;;;;;5033765;28;20449;-77
2021/08/29 05:11:36;;;;;;;92.53;86.00;;;;;;;;;;5033048;28;20444;-74
2021/08/29 05:14:05;;;;;;;84.07;78.00;;;;;;;;;;5032800;28;20963;-74
2021/08/29 05:16:32;;;;;;;82.13;75.63;;;;;;;;;;5032949;28;20456;-74
2021/08/29 05:18:59;;;;;;;83.60;77.60;;;;;;;;;;5033009;28;20480;-69
2021/08/29 05:21:26;;;;;;;82.90;77.00;;;;;;;;;;5032730;28;20456;-77
2021/08/29 05:23:53;;;;;;;81.03;75.30;;;;;;;;;;5033119;28;20444;-75
2021/08/29 05:26:20;;;;;;;80.37;74.60;;;;;;;;;;5093017;23;20507;-73
2021/08/29 05:28:47;;;;;;;83.40;77.50;;;;;;;;;;4981849;28;20451;-74
2021/08/29 05:31:16;;;;;;;84.00;77.77;;;;;;;;;;4954439;29;20471;-74
2021/08/29 05:33:43;;;;;;;91.67;85.27;;;;;;;;;;4954335;29;20448;-76
2021/08/29 05:36:10;;;;;;;86.63;80.57;;;;;;;;;;4954367;29;20991;-71
2021/08/29 05:38:37;;;;;;;89.20;82.90;;;;;;;;;;4954312;29;20495;-76
2021/08/29 05:41:04;;;;;;;89.73;83.53;;;;;;;;;;4954236;28;20454;-71
2021/08/29 05:43:31;;;;;;;100.00;93.40;;;;;;;;;;4954046;29;20456;-72
2021/08/29 05:45:58;;;;;;;91.67;85.07;;;;;;;;;;4954511;29;20479;-75
2021/08/29 05:48:27;;;;;;;95.07;88.57;;;;;;;;;;4954181;29;20444;-78
2021/08/29 05:50:54;;;;;;;94.23;87.93;;;;;;;;;;4954277;29;20826;-69
2021/08/29 05:53:21;;;;;;;102.50;95.73;;;;;;;;;;4954179;29;20444;-76
2021/08/29 05:55:48;;;;;;;91.57;85.27;;;;;;;;;;4954160;29;20506;-68
2021/08/29 05:58:15;;;;;;;91.87;85.57;;;;;;;;;;4954354;29;20850;-70
2021/08/29 06:00:42;;;;;;;92.93;86.73;;;;;;;;;;4954393;29;20456;-77
2021/08/29 06:03:09;;;;;;;86.90;80.93;;;;;;;;;;4953838;29;20452;-75
2021/08/29 06:05:38;;;;;;;89.13;83.13;;;;;;;;;;4954200;29;20475;-75
2021/08/29 06:08:05;;;;;;;93.13;86.93;;;;;;;;;;4954272;29;20444;-77
2021/08/29 06:10:32;;;;;;;91.60;85.40;;;;;;;;;;4953928;29;20452;-71
2021/08/29 06:12:59;;;;;;;88.50;82.53;;;;;;;;;;4954054;29;20463;-68
2021/08/29 06:15:26;;;;;;;90.40;84.23;;;;;;;;;;4954066;29;20475;-73
2021/08/29 06:17:53;;;;;;;96.27;90.07;;;;;;;;;;4953719;29;20452;-72
2021/08/29 06:20:20;;;;;;;87.93;81.83;;;;;;;;;;4953813;29;20456;-69
2021/08/29 06:22:49;;;;;;;91.20;85.23;;;;;;;;;;4954157;29;20464;-70
2021/08/29 06:25:16;;;;;;;92.80;86.60;;;;;;;;;;4953710;29;20479;-76
2021/08/29 06:27:43;;;;;;;87.00;80.87;;;;;;;;;;4954016;29;20452;-74
2021/08/29 06:30:10;;;;;;;90.70;84.80;;;;;;;;;;4953267;29;20452;-75
2021/08/29 06:32:37;;;;;;;88.30;82.40;;;;;;;;;;4953865;29;20452;-71
2021/08/29 06:35:05;;;;;;;88.57;82.67;;;;;;;;;;4953883;29;20476;-75
2021/08/29 06:37:32;;;;;;;92.93;86.80;;;;;;;;;;4953318;29;20466;-71
2021/08/29 06:40:00;;;;;;;97.80;91.50;;;;;;;;;;4953508;29;20503;-71
2021/08/29 06:42:28;;;;;;;92.50;86.50;;;;;;;;;;4953382;29;20452;-74
2021/08/29 06:44:55;;;;;;;94.50;88.50;;;;;;;;;;4953378;29;20479;-70
2021/08/29 06:47:22;;;;;;;88.47;82.67;;;;;;;;;;4953980;29;20454;-68
2021/08/29 06:49:49;;;;;;;92.70;86.40;;;;;;;;;;4953621;29;20451;-70
2021/08/29 06:52:16;;;;;;;93.33;87.13;;;;;;;;;;4953294;29;20459;-70
2021/08/29 06:54:43;;;;;;;88.30;82.10;;;;;;;;;;4955760;28;20526;-69
2021/08/29 06:57:11;;;;;;;85.80;80.10;;;;;;;;;;4957378;29;20452;-68
2021/08/29 06:59:38;;;;;;;95.70;89.70;;;;;;;;;;4957072;29;20483;-71
2021/08/29 07:02:06;;;;;;;91.67;85.67;;;;;;;;;;4957267;29;20448;-68
2021/08/29 07:04:33;;;;;;;91.53;85.63;;;;;;;;;;4957269;29;20452;-69
2021/08/29 07:07:00;;;;;;;92.73;86.73;;;;;;;;;;4957105;29;20448;-69
2021/08/29 07:09:27;;;;;;;94.67;88.60;;;;;;;;;;4957246;29;20452;-68
2021/08/29 07:11:54;;;;;;;94.80;88.70;;;;;;;;;;4956479;29;20954;-69
2021/08/29 07:14:22;;;;;;;91.67;85.77;;;;;;;;;;4957116;29;20448;-68
2021/08/29 07:16:49;;;;;;;104.23;97.73;;;;;;;;;;4956959;29;20479;-67
2021/08/29 07:19:16;;;;;;;96.67;90.37;;;;;;;;;;4956828;29;20484;-68
2021/08/29 07:21:43;;;;;;;98.37;92.07;;;;;;;;;;4956611;29;20963;-68
2021/08/29 07:24:11;;;;;;;96.30;90.00;;;;;;;;;;4956412;29;20471;-68
2021/08/29 07:26:38;;;;;;;98.77;92.47;;;;;;;;;;4956385;29;20476;-68
2021/08/29 07:29:05;;;;;;;97.87;91.77;;;;;;;;;;4956788;29;20454;-67
2021/08/29 07:31:33;;;;;;;93.53;87.57;;;;;;;;;;4956215;29;20451;-68
2021/08/29 07:34:00;;;;;;;98.90;92.80;;;;;;;;;;4956478;29;20448;-68
2021/08/29 07:36:27;;;;;;;100.73;94.43;;;;;;;;;;4956370;29;20474;-67
2021/08/29 07:38:54;;;;;;;98.90;92.50;;;;;;;;;;4956590;29;20495;-69
2021/08/29 07:41:22;;;;;;;98.30;92.00;;;;;;;;;;4956529;29;20448;-68
2021/08/29 07:43:49;;;;;;;103.53;96.93;;;;;;;;;;4956843;29;20475;-68
2021/08/29 07:46:16;;;;;;;100.57;93.97;;;;;;;;;;4956444;29;20475;-68
2021/08/29 07:48:45;;;;;;;106.73;99.93;;;;;;;;;;4956743;29;20456;-68
2021/08/29 07:51:12;;;;;;;105.97;99.17;;;;;;;;;;4956133;29;20913;-68
2021/08/29 07:53:39;;;;;;;106.27;99.43;;;;;;;;;;4956744;29;20445;-69
2021/08/29 07:56:06;;;;;;;104.70;98.00;;;;;;;;;;4957081;29;20464;-68
2021/08/29 07:58:33;;;;;;;108.00;101.20;;;;;;;;;;4956203;29;20499;-68
2021/08/29 08:01:00;;;;;;;108.00;100.90;;;;;;;;;;4958186;29;20547;-68
2021/08/29 08:03:27;;;;;;;106.23;99.47;;;;;;;;;;4958090;29;20452;-68
2021/08/29 08:05:56;;;;;;;103.53;96.93;;;;;;;;;;4956438;28;20472;-68
2021/08/29 08:08:23;;;;;;;96.80;90.50;;;;;;;;;;4956365;29;20464;-67
2021/08/29 08:10:50;;;;;;;107.33;100.40;;;;;;;;;;4956349;29;20455;-68
2021/08/29 08:13:17;;;;;;;103.33;96.57;;;;;;;;;;4955786;29;20448;-68
2021/08/29 08:15:44;;;;;;;104.83;98.03;;;;;;;;;;4956014;29;20479;-68
2021/08/29 08:18:11;;;;;;;107.57;100.77;;;;;;;;;;4956116;29;20657;-68
2021/08/29 08:20:38;;;;;;;108.10;101.40;;;;;;;;;;4955549;29;20495;-69
2021/08/29 08:23:07;;;;;;;112.83;105.73;;;;;;;;;;4955929;29;20453;-68
2021/08/29 08:25:34;;;;;;;114.50;107.10;;;;;;;;;;4955203;29;20484;-68
2021/08/29 08:28:01;;;;;;;114.70;107.60;;;;;;;;;;4956255;29;20482;-67
2021/08/29 08:30:28;;;;;;;107.97;101.03;;;;;;;;;;4955777;29;20444;-68
2021/08/29 08:32:55;;;;;;;115.00;107.80;;;;;;;;;;4955901;29;20455;-68
2021/08/29 08:35:23;;;;;;;126.57;118.77;;;;;;;;;;4955242;29;21043;-68
2021/08/29 08:37:50;;;;;;;129.57;121.53;;;;;;;;;;4955601;29;20451;-69
2021/08/29 08:40:20;;;;;;;123.70;116.00;;;;;;;;;;4955447;29;20480;-68
2021/08/29 08:42:47;;;;;;;124.23;116.33;;;;;;;;;;4955489;29;20469;-67
2021/08/29 08:45:15;;;;;;;124.90;116.90;;;;;;;;;;4955980;29;20472;-67
2021/08/29 08:47:43;;;;;;;125.43;117.43;;;;;;;;;;4955112;29;20967;-67
2021/08/29 08:50:11;;;;;;;129.43;121.03;;;;;;;;;;4955412;29;20449;-67
2021/08/29 08:52:38;;;;;;;132.57;124.17;;;;;;;;;;4955489;29;20450;-68
2021/08/29 08:55:06;;;;;;;124.90;116.67;;;;;;;;;;4955222;29;20468;-68
2021/08/29 08:57:35;;;;;;;123.87;115.87;;;;;;;;;;4955369;29;20825;-68
2021/08/29 09:00:02;;;;;;;116.97;109.47;;;;;;;;;;4954865;29;20491;-68
2021/08/29 09:02:29;;;;;;;126.83;118.60;;;;;;;;;;4955178;29;20451;-67
2021/08/29 09:04:56;;;;;;;125.10;116.60;;;;;;;;;;4955057;29;20475;-68
2021/08/29 09:07:24;;;;;;;121.60;113.10;;;;;;;;;;4955354;29;20456;-67
2021/08/29 09:09:51;;;;;;;137.23;128.30;;;;;;;;;;4954744;29;20452;-68
2021/08/29 09:12:18;;;;;;;141.33;132.07;;;;;;;;;;4955183;29;20448;-67
2021/08/29 09:14:47;;;;;;;147.30;137.90;;;;;;;;;;4954810;29;20820;-68
2021/08/29 09:17:24;;;;;;;135.40;126.20;;;;;;;;;;4954261;28;20887;-68
2021/08/29 09:19:51;;;;;;;136.73;127.53;;;;;;;;;;4954898;29;21002;-68
2021/08/29 09:22:26;;;;;;;128.87;120.00;;;;;;;;;;4954897;29;20455;-67
2021/08/29 09:24:53;;;;;;;131.53;122.43;;;;;;;;;;4954839;29;20472;-68
2021/08/29 09:27:23;;;;;;;131.77;122.97;;;;;;;;;;4954422;29;20442;-67
2021/08/29 09:29:52;;;;;;;126.00;117.47;;;;;;;;;;4954942;29;20951;-67
2021/08/29 09:32:20;;;;;;;119.33;111.20;;;;;;;;;;4954647;29;20451;-68
2021/08/29 09:34:57;;;;;;;117.13;109.23;;;;;;;;;;4954581;29;20490;-69
2021/08/29 09:37:24;;;;;;;104.00;96.60;;;;;;;;;;4954848;29;20441;-69
2021/08/29 09:39:51;;;;;;;110.83;103.40;;;;;;;;;;4954382;29;20496;-68
2021/08/29 09:42:18;;;;;;;104.90;97.50;;;;;;;;;;4954786;29;20803;-67
2021/08/29 09:44:45;;;;;;;101.60;94.10;;;;;;;;;;4954683;29;20456;-68
2021/08/29 09:47:13;;;;;;;106.23;98.87;;;;;;;;;;4954883;29;20452;-68
2021/08/29 09:49:41;;;;;;;109.87;102.57;;;;;;;;;;4954549;29;20459;-68
2021/08/29 09:52:09;;;;;;;104.70;97.40;;;;;;;;;;4954253;29;20456;-68
2021/08/29 09:54:36;;;;;;;106.73;98.93;;;;;;;;;;4954851;29;20963;-68
2021/08/29 09:57:06;;;;;;;103.37;95.97;;;;;;;;;;4954869;29;20452;-68
2021/08/29 09:59:41;;;;;;;101.20;93.90;;;;;;;;;;4954998;29;20491;-68
2021/08/29 10:02:08;;;;;;;104.17;96.60;;;;;;;;;;4954437;29;20939;-69
2021/08/29 10:04:37;;;;;;;98.23;91.03;;;;;;;;;;4954923;29;20479;-68
2021/08/29 10:07:11;;;;;;;107.20;100.00;;;;;;;;;;4955260;29;20452;-68
2021/08/29 10:09:38;;;;;;;103.83;96.23;;;;;;;;;;4955166;29;20503;-68
2021/08/29 10:12:07;;;;;;;112.43;104.83;;;;;;;;;;4960233;29;20459;-69
2021/08/29 10:14:35;;;;;;;103.13;95.60;;;;;;;;;;4971886;29;20532;-69
2021/08/29 10:17:02;;;;;;;103.70;96.20;;;;;;;;;;4972240;29;20456;-69
2021/08/29 10:19:30;;;;;;;95.40;88.40;;;;;;;;;;4969264;29;20502;-69
2021/08/29 10:22:00;;;;;;;101.63;94.33;;;;;;;;;;4971761;29;20459;-68
2021/08/29 10:24:30;;;;;;;102.80;95.50;;;;;;;;;;4969266;29;20483;-68
2021/08/29 10:26:57;;;;;;;108.57;101.30;;;;;;;;;;4955523;29;20982;-68
2021/08/29 10:29:28;;;;;;;106.57;98.80;;;;;;;;;;4958661;28;20448;-68
2021/08/29 10:31:57;;;;;;;112.67;104.60;;;;;;;;;;4958834;29;20443;-68
2021/08/29 10:34:24;;;;;;;113.57;105.27;;;;;;;;;;4960548;29;20905;-68
2021/08/29 10:36:53;;;;;;;117.80;109.20;;;;;;;;;;4962993;29;20471;-68
2021/08/29 10:39:21;;;;;;;127.40;118.30;;;;;;;;;;4962816;29;20952;-68
2021/08/29 10:41:49;;;;;;;133.10;123.73;;;;;;;;;;4959384;29;20452;-68
2021/08/29 10:44:17;;;;;;;127.70;118.50;;;;;;;;;;4971403;29;20428;-68
2021/08/29 10:46:45;;;;;;;133.70;124.03;;;;;;;;;;4975042;29;20474;-69
2021/08/29 10:49:13;;;;;;;128.20;118.90;;;;;;;;;;4974943;29;20460;-69
2021/08/29 10:51:41;;;;;;;140.83;130.83;;;;;;;;;;4973501;29;20456;-69
2021/08/29 10:54:11;;;;;;;121.60;112.47;;;;;;;;;;4970836;29;20460;-68
2021/08/29 10:56:41;;;;;;;126.87;117.87;;;;;;;;;;4966994;29;20499;-69
2021/08/29 10:59:22;;;;;;;118.87;110.20;;;;;;;;;;4968518;29;20489;-67
2021/08/29 11:01:50;;;;;;;120.70;112.20;;;;;;;;;;4956967;29;20454;-69
2021/08/29 11:04:36;;;;;;;125.90;116.90;;;;;;;;;;4957141;29;20452;-69
2021/08/29 11:07:03;;;;;;;133.97;124.47;;;;;;;;;;4957267;29;20456;-68
2021/08/29 11:09:46;;;;;;;133.40;123.70;;;;;;;;;;4957140;28;20448;-67
2021/08/29 11:12:34;;;;;;;137.13;127.23;;;;;;;;;;4956903;29;20451;-67
2021/08/29 11:15:01;;;;;;;133.17;123.77;;;;;;;;;;4956775;29;20504;-67
2021/08/29 11:17:29;;;;;;;118.20;109.60;;;;;;;;;;4956845;29;20459;-68
2021/08/29 11:20:09;;;;;;;119.90;111.30;;;;;;;;;;4956810;29;20491;-67
2021/08/29 11:22:39;;;;;;;118.53;109.93;;;;;;;;;;4956797;29;20440;-68
2021/08/29 11:25:12;;;;;;;130.03;120.53;;;;;;;;;;4956520;29;20486;-67
2021/08/29 11:27:57;;;;;;;127.63;118.03;;;;;;;;;;5027800;23;20493;-71
2021/08/29 11:30:25;;;;;;;138.87;128.57;;;;;;;;;;5007579;28;20453;-70
2021/08/29 11:32:53;;;;;;;144.47;133.37;;;;;;;;;;5014611;28;20446;-70
2021/08/29 11:35:26;;;;;;;164.03;151.20;;;;;;;;;;5014841;28;20822;-70
2021/08/29 11:38:17;;;;;;;173.00;159.70;;;;;;;;;;5014422;28;20465;-70
2021/08/29 11:41:01;;;;;;;164.40;152.00;;;;;;;;;;5003244;28;20501;-71
2021/08/29 11:43:34;;;;;;;160.30;148.20;;;;;;;;;;5014780;28;20442;-70
2021/08/29 11:46:03;;;;;;;165.50;153.00;;;;;;;;;;5014714;28;21090;-70
2021/08/29 11:48:31;;;;;;;161.87;149.53;;;;;;;;;;5014333;28;20544;-70
2021/08/29 11:50:59;;;;;;;161.00;148.97;;;;;;;;;;5014020;28;20437;-71
2021/08/29 11:53:26;;;;;;;177.03;164.30;;;;;;;;;;5014449;28;20464;-72
2021/08/29 11:55:57;;;;;;;159.67;147.73;;;;;;;;;;5014275;28;20944;-70
2021/08/29 11:58:24;;;;;;;157.90;146.50;;;;;;;;;;5014347;28;20445;-71
2021/08/29 12:01:02;;;;;;;156.17;144.43;;;;;;;;;;5014126;28;20508;-70
2021/08/29 12:03:32;;;;;;;152.50;141.03;;;;;;;;;;5013857;28;20855;-70
2021/08/29 12:06:00;;;;;;;152.40;140.60;;;;;;;;;;5013724;28;20465;-70
2021/08/29 12:08:32;;;;;;;140.43;129.93;;;;;;;;;;5014383;28;20452;-70
2021/08/29 12:11:00;;;;;;;132.77;122.90;;;;;;;;;;5013773;28;20847;-70
2021/08/29 12:13:31;;;;;;;129.93;120.33;;;;;;;;;;5014170;28;20500;-71
2021/08/29 12:16:03;;;;;;;134.77;124.83;;;;;;;;;;5013593;28;20839;-71
2021/08/29 12:18:32;;;;;;;132.57;122.87;;;;;;;;;;5013407;28;20812;-71
2021/08/29 12:21:00;;;;;;;129.27;120.07;;;;;;;;;;5013746;28;20481;-70
2021/08/29 12:23:27;;;;;;;120.47;111.67;;;;;;;;;;5013595;28;20495;-70
2021/08/29 12:26:02;;;;;;;129.33;120.33;;;;;;;;;;5013474;28;20504;-70
2021/08/29 12:28:30;;;;;;;111.53;103.33;;;;;;;;;;5013160;28;20452;-71
2021/08/29 12:30:57;;;;;;;115.47;107.20;;;;;;;;;;5013574;28;20445;-72
2021/08/29 12:33:26;;;;;;;112.77;104.97;;;;;;;;;;5013675;28;20453;-69
2021/08/29 12:35:54;;;;;;;105.03;97.13;;;;;;;;;;5013100;28;20937;-71
2021/08/29 12:38:22;;;;;;;112.80;105.13;;;;;;;;;;5013389;28;20940;-71
2021/08/29 12:40:50;;;;;;;114.07;106.47;;;;;;;;;;5013163;28;20481;-71
2021/08/29 12:43:17;;;;;;;109.83;101.83;;;;;;;;;;5013381;28;20461;-72
2021/08/29 12:45:45;;;;;;;113.00;104.77;;;;;;;;;;5012935;28;20968;-71
2021/08/29 12:48:12;;;;;;;115.47;106.93;;;;;;;;;;5013191;28;20454;-72
2021/08/29 12:50:43;;;;;;;122.40;113.40;;;;;;;;;;5012701;28;20442;-72
2021/08/29 12:53:11;;;;;;;110.47;102.37;;;;;;;;;;5012678;28;20488;-72
2021/08/29 12:55:40;;;;;;;109.77;101.40;;;;;;;;;;5012885;28;20445;-71
2021/08/29 12:58:12;;;;;;;112.33;103.93;;;;;;;;;;5013052;28;20500;-72
2021/08/29 13:00:40;;;;;;;104.90;97.10;;;;;;;;;;5014104;28;20485;-71
2021/08/29 13:03:07;;;;;;;103.73;95.97;;;;;;;;;;5013223;28;20966;-72
2021/08/29 13:05:38;;;;;;;107.40;99.40;;;;;;;;;;5012938;28;20449;-72
2021/08/29 13:08:07;;;;;;;107.70;99.80;;;;;;;;;;5013103;28;20449;-72
2021/08/29 13:10:34;;;;;;;110.40;102.40;;;;;;;;;;5013105;28;20441;-72
2021/08/29 13:13:05;;;;;;;110.97;102.67;;;;;;;;;;5013304;28;20457;-71
2021/08/29 13:15:32;;;;;;;110.40;102.30;;;;;;;;;;5012706;28;20449;-72
2021/08/29 13:17:59;;;;;;;111.37;102.97;;;;;;;;;;5012711;28;20461;-72
2021/08/29 13:20:34;;;;;;;114.97;106.37;;;;;;;;;;5012220;28;20477;-72
2021/08/29 13:23:02;;;;;;;114.80;106.03;;;;;;;;;;5015123;28;20492;-73
2021/08/29 13:25:30;;;;;;;122.00;113.17;;;;;;;;;;5017048;28;20450;-72
2021/08/29 13:27:58;;;;;;;109.63;101.37;;;;;;;;;;5018351;28;20496;-70
2021/08/29 13:30:26;;;;;;;108.50;100.40;;;;;;;;;;5012354;28;20951;-72
2021/08/29 13:32:53;;;;;;;111.07;102.77;;;;;;;;;;5012416;28;20817;-72
2021/08/29 13:35:21;;;;;;;112.13;103.70;;;;;;;;;;5012439;28;20941;-72
2021/08/29 13:37:49;;;;;;;110.87;102.17;;;;;;;;;;5012408;28;20984;-71
2021/08/29 13:40:17;;;;;;;120.70;111.80;;;;;;;;;;5012064;28;20940;-72
2021/08/29 13:42:51;;;;;;;117.07;108.20;;;;;;;;;;5012447;28;20453;-72
2021/08/29 13:45:22;;;;;;;114.93;106.33;;;;;;;;;;5012209;28;20465;-73
2021/08/29 13:47:49;;;;;;;117.40;108.70;;;;;;;;;;5012364;28;20473;-72
2021/08/29 13:50:16;;;;;;;113.47;104.53;;;;;;;;;;5012038;28;20454;-71
2021/08/29 13:52:43;;;;;;;122.87;113.47;;;;;;;;;;5011838;28;20828;-71
2021/08/29 13:55:14;;;;;;;113.40;104.50;;;;;;;;;;5012389;28;20737;-71
2021/08/29 13:57:41;;;;;;;116.90;107.90;;;;;;;;;;5012015;28;20477;-71
2021/08/29 14:00:10;;;;;;;121.93;113.20;;;;;;;;;;5011785;28;20454;-71
2021/08/29 14:02:37;;;;;;;115.07;105.93;;;;;;;;;;5011725;28;20497;-72
2021/08/29 14:05:04;;;;;;;116.03;107.33;;;;;;;;;;5012037;28;21052;-71
2021/08/29 14:07:31;;;;;;;116.30;107.50;;;;;;;;;;5011972;28;20465;-71
2021/08/29 14:09:58;;;;;;;121.50;112.30;;;;;;;;;;5012067;28;20802;-71
2021/08/29 14:12:25;;;;;;;129.00;119.63;;;;;;;;;;5011638;28;20437;-72